Time;durP1;ratioP1;P1;durP2;ratioP2;P2;SDS_P1;SDS_P2;PMS_P1;PMS_P2;Temp;Humidity;BMP_temperature;BMP_pressure;BME280_temperature;BME280_humidity;BME280_pressure;Samples;Min_cycle;Max_cycle;Signal;HPM_P1;HPM_P2
2023/03/15 07:37:56;;;;;;;100.15;68.30;;;;;;;1.27;100.00;99126.56;5163950;27;20049;-84
2023/03/15 07:41:31;;;;;;;106.57;69.97;;;;;;;1.50;100.00;99137.19;5106015;27;20385;-84
2023/03/15 07:43:57;;;;;;;107.13;68.03;;;;;;;1.52;100.00;99103.94;5101127;28;20407;-85
2023/03/15 07:46:24;;;;;;;109.78;70.22;;;;;;;1.64;100.00;99123.50;5103628;28;20172;-85
2023/03/15 07:48:51;;;;;;;110.25;68.53;;;;;;;1.81;100.00;99135.47;5109047;28;20059;-85
2023/03/15 07:51:18;;;;;;;119.28;71.05;;;;;;;1.87;100.00;99142.16;5096500;28;20138;-85
2023/03/15 07:53:44;;;;;;;114.22;71.35;;;;;;;1.92;100.00;99138.09;5088282;28;20136;-85
2023/03/15 07:56:11;;;;;;;103.30;69.28;;;;;;;2.13;100.00;99129.19;5100826;28;20054;-82
2023/03/15 07:58:39;;;;;;;111.03;71.78;;;;;;;2.30;100.00;99119.69;5091102;28;20051;-85
2023/03/15 08:01:05;;;;;;;106.97;69.55;;;;;;;2.33;100.00;99119.41;5106637;28;20067;-86
2023/03/15 08:03:32;;;;;;;104.78;68.40;;;;;;;2.35;100.00;99109.41;5107997;28;20073;-87
2023/03/15 08:05:59;;;;;;;115.88;71.88;;;;;;;2.40;100.00;99127.78;5101811;28;20131;-86
2023/03/15 08:08:26;;;;;;;112.05;69.25;;;;;;;2.44;100.00;99118.50;5109118;28;20139;-85
2023/03/15 08:10:52;;;;;;;103.78;68.05;;;;;;;2.51;100.00;99116.13;5108459;28;20501;-86
2023/03/15 08:13:19;;;;;;;104.75;68.88;;;;;;;2.75;100.00;99137.28;5089948;28;20044;-85
2023/03/15 08:15:47;;;;;;;112.85;68.70;;;;;;;2.76;100.00;99137.13;5103553;28;20044;-86
2023/03/15 08:18:14;;;;;;;108.10;68.13;;;;;;;2.80;97.88;99135.88;5105881;28;20400;-86
2023/03/15 08:20:41;;;;;;;99.15;66.82;;;;;;;2.68;98.78;99115.50;5107167;28;20048;-86
2023/03/15 08:23:08;;;;;;;105.10;68.10;;;;;;;2.84;92.81;99147.19;5106689;28;20036;-85
2023/03/15 08:25:35;;;;;;;98.47;66.72;;;;;;;2.65;89.10;99118.44;5105851;28;20503;-85
2023/03/15 08:28:01;;;;;;;104.13;67.72;;;;;;;2.79;91.62;99142.22;5107413;28;20383;-86
2023/03/15 08:30:28;;;;;;;101.07;66.95;;;;;;;3.00;90.95;99147.53;5107601;28;20073;-86
2023/03/15 08:32:56;;;;;;;103.78;69.07;;;;;;;2.92;86.73;99135.75;5104498;28;20425;-85
2023/03/15 08:35:23;;;;;;;103.05;67.55;;;;;;;3.00;91.32;99144.00;5107894;28;20482;-85
2023/03/15 08:37:51;;;;;;;112.85;69.80;;;;;;;3.09;89.59;99134.28;5107442;28;20044;-85
2023/03/15 08:40:23;;;;;;;103.28;67.38;;;;;;;3.15;86.38;99139.09;5107607;28;20139;-85
2023/03/15 08:42:50;;;;;;;110.88;70.63;;;;;;;3.42;87.03;99157.25;5102172;28;20052;-85
2023/03/15 08:45:17;;;;;;;107.22;67.38;;;;;;;3.54;88.10;99152.59;5104299;28;20052;-85
2023/03/15 08:47:43;;;;;;;104.57;67.68;;;;;;;3.59;83.19;99141.41;5098501;28;20052;-85
2023/03/15 08:50:14;;;;;;;102.53;67.05;;;;;;;3.65;82.18;99156.97;5102756;28;20075;-84
2023/03/15 08:52:40;;;;;;;;;;;;;;;3.63;81.68;99159.81;5078553;28;20055;-84
2023/03/15 08:55:08;;;;;;;102.57;68.88;;;;;;;3.88;83.45;99162.91;5088913;28;19920;-85
2023/03/15 08:57:35;;;;;;;108.38;69.15;;;;;;;4.15;83.58;99151.41;5085752;28;20387;-85
2023/03/15 09:00:06;;;;;;;120.38;73.82;;;;;;;4.29;78.49;99166.28;5090915;28;20051;-85
2023/03/15 09:02:33;;;;;;;103.60;67.65;;;;;;;4.32;80.38;99139.06;5090734;28;20047;-85
2023/03/15 09:04:59;;;;;;;102.85;68.35;;;;;;;4.53;74.75;99141.56;5089799;28;20044;-85
2023/03/15 09:07:27;;;;;;;108.43;67.45;;;;;;;4.50;76.63;99146.38;5079399;28;20040;-86
2023/03/15 09:09:54;;;;;;;102.85;68.03;;;;;;;4.39;74.86;99139.31;5080071;28;20047;-86
2023/03/15 09:12:21;;;;;;;114.75;73.22;;;;;;;4.35;73.41;99164.84;5088960;28;20055;-85
2023/03/15 09:14:48;;;;;;;101.90;68.22;;;;;;;4.35;74.54;99178.28;5094200;28;20143;-86
2023/03/15 09:17:14;;;;;;;103.85;67.70;;;;;;;4.36;77.29;99182.69;5082877;28;20108;-86
2023/03/15 09:19:41;;;;;;;115.35;72.32;;;;;;;4.43;75.23;99178.44;5092341;28;20051;-86
2023/03/15 09:22:08;;;;;;;117.03;74.07;;;;;;;4.54;75.79;99185.47;5093521;28;20532;-85
2023/03/15 09:24:36;;;;;;;105.93;69.07;;;;;;;4.65;77.86;99182.59;5093213;28;20130;-86
2023/03/15 10:03:35;;;;;;;109.03;70.65;;;;;;;5.38;67.12;99189.09;5172916;27;20048;-86
2023/03/15 10:06:07;;;;;;;113.32;96.03;;;;;;;5.30;66.18;99193.41;5119939;27;1320990;-86
2023/03/15 10:08:34;;;;;;;109.93;69.97;;;;;;;5.32;67.41;99185.16;5147669;27;20504;-86
2023/03/15 10:11:08;;;;;;;114.70;70.70;;;;;;;5.44;68.18;99175.84;5163678;27;20038;-86
2023/03/15 10:13:49;;;;;;;114.60;71.88;;;;;;;5.76;68.28;99169.09;5159450;27;20053;-86
2023/03/15 10:16:22;;;;;;;;;;;;;;;5.93;65.69;99196.22;5143433;27;20519;-86
2023/03/15 10:19:01;;;;;;;116.50;73.93;;;;;;;5.67;67.16;99181.69;5147110;27;19926;-86
2023/03/15 10:21:38;;;;;;;115.68;71.45;;;;;;;5.68;66.95;99191.44;5165162;27;20050;-86
2023/03/15 10:24:12;;;;;;;115.63;72.88;;;;;;;5.83;65.93;99189.06;5166168;27;20046;-86
2023/03/15 10:26:41;;;;;;;126.35;73.03;;;;;;;5.99;65.80;99183.03;5164723;27;20042;-86
2023/03/15 10:29:13;;;;;;;119.55;73.35;;;;;;;5.87;62.66;99184.19;5178142;27;20077;-86
2023/03/15 10:31:42;;;;;;;112.97;72.40;;;;;;;6.01;63.54;99163.97;5163736;27;20121;-86
2023/03/15 10:34:11;;;;;;;135.80;79.45;;;;;;;5.93;66.08;99169.25;5166632;27;20050;-87
2023/03/15 10:36:38;;;;;;;116.50;72.60;;;;;;;6.03;65.03;99170.88;5189043;27;20052;-88
2023/03/15 10:39:05;;;;;;;119.00;73.63;;;;;;;6.36;65.41;99176.56;5179502;27;20477;-88
2023/03/15 10:41:38;;;;;;;117.07;71.85;;;;;;;6.15;57.91;99154.47;5155913;27;20066;-88
2023/03/15 10:44:07;;;;;;;117.43;73.50;;;;;;;6.54;59.21;99149.50;5145316;27;20042;-87
2023/03/15 10:46:34;;;;;;;112.13;71.03;;;;;;;6.37;58.16;99158.53;5150647;27;20050;-87
2023/03/15 10:49:11;;;;;;;114.68;72.63;;;;;;;5.93;57.17;99174.66;5126410;28;20558;-88
2023/03/15 10:51:42;;;;;;;114.82;71.60;;;;;;;6.08;57.62;99173.16;5150290;27;20446;-88
2023/03/15 10:54:13;;;;;;;117.30;73.82;;;;;;;5.82;58.35;99170.34;5137320;27;20039;-86
2023/03/15 10:56:46;;;;;;;113.97;71.28;;;;;;;5.94;58.25;99197.94;5138031;27;20049;-86
2023/03/15 10:59:16;;;;;;;111.45;71.32;;;;;;;5.87;57.87;99178.81;5147136;27;20051;-86
2023/03/15 11:01:47;;;;;;;116.72;72.30;;;;;;;5.91;58.95;99192.84;5142414;27;20039;-86
2023/03/15 11:04:18;;;;;;;112.57;71.53;;;;;;;5.84;60.10;99184.50;5132785;27;20055;-86
2023/03/15 11:06:47;;;;;;;125.53;75.75;;;;;;;5.77;59.81;99188.84;5134064;27;20047;-86
2023/03/15 11:09:16;;;;;;;129.73;78.45;;;;;;;5.47;60.92;99170.16;5130832;27;20055;-86
2023/03/15 11:11:52;;;;;;;111.50;71.47;;;;;;;5.40;61.31;99174.47;5132572;27;20402;-85
2023/03/15 11:14:19;;;;;;;114.57;72.90;;;;;;;5.01;63.71;99179.22;5132409;27;20142;-87
2023/03/15 11:16:47;;;;;;;112.85;71.80;;;;;;;5.03;65.74;99206.84;5137437;27;20134;-86
2023/03/15 11:19:20;;;;;;;110.88;71.43;;;;;;;5.20;66.63;99189.91;5131546;27;20409;-87
2023/03/15 11:21:49;;;;;;;106.88;70.43;;;;;;;4.95;65.93;99196.81;5133043;27;20047;-88
2023/03/15 11:24:27;;;;;;;125.13;75.90;;;;;;;4.88;66.36;99211.91;5128529;27;20050;-87
2023/03/15 11:26:55;;;;;;;110.03;70.55;;;;;;;4.61;67.08;99200.91;5134696;27;20561;-86
2023/03/15 11:29:26;;;;;;;113.63;72.25;;;;;;;4.62;68.11;99188.28;5123966;27;20081;-87
2023/03/15 11:31:53;;;;;;;104.57;68.85;;;;;;;4.71;66.77;99214.34;5125377;27;20054;-86
2023/03/15 11:34:30;;;;;;;110.97;71.43;;;;;;;4.77;67.13;99192.22;5131089;27;20051;-87
2023/03/15 11:37:03;;;;;;;111.22;70.50;;;;;;;4.70;70.07;99190.25;5127662;27;20047;-88
2023/03/15 11:39:36;;;;;;;119.18;72.95;;;;;;;4.74;72.51;99194.34;5120887;27;20486;-88
2023/03/15 11:42:09;;;;;;;121.25;74.65;;;;;;;4.51;74.87;99181.22;5114818;27;20498;-87
2023/03/15 11:44:39;;;;;;;109.55;71.32;;;;;;;4.71;77.60;99216.19;5125612;27;20049;-89
2023/03/15 11:47:13;;;;;;;114.15;72.68;;;;;;;4.36;78.17;99205.06;5135489;27;20122;-87
2023/03/15 11:49:49;;;;;;;113.43;71.03;;;;;;;4.32;79.89;99202.81;5112080;28;20421;-88
2023/03/15 11:52:16;;;;;;;119.60;75.72;;;;;;;4.29;82.82;99213.84;5124412;27;20433;-87
2023/03/15 11:54:46;;;;;;;123.68;75.50;;;;;;;4.27;86.68;99205.09;5120447;27;20051;-88
2023/03/15 11:57:44;;;;;;;100.70;67.22;;;;;;;3.80;94.52;99200.44;5127829;27;20066;-86
2023/03/15 12:00:45;;;;;;;102.05;67.85;;;;;;;3.63;100.00;99207.31;5085538;27;20130;-87
2023/03/15 12:23:36;;;;;;;108.72;70.10;;;;;;;3.06;100.00;99237.47;5129107;27;20053;-87
2023/03/15 12:26:09;;;;;;;106.45;69.60;;;;;;;2.86;100.00;99247.28;5120779;27;20459;-88
2023/03/15 12:28:37;;;;;;;105.68;69.00;;;;;;;2.94;100.00;99251.97;5123280;27;20047;-87
2023/03/15 12:31:06;;;;;;;107.03;70.03;;;;;;;3.04;100.00;99265.44;5133633;27;20084;-88
2023/03/15 12:33:45;;;;;;;115.00;73.05;;;;;;;2.63;100.00;99234.00;5133703;27;20057;-88
2023/03/15 12:36:21;;;;;;;103.97;69.35;;;;;;;2.81;100.00;99270.97;5136594;27;20050;-87
2023/03/15 12:39:00;;;;;;;118.28;75.25;;;;;;;2.68;100.00;99263.13;5133082;27;20042;-88
2023/03/15 12:41:36;;;;;;;116.15;73.80;;;;;;;2.50;100.00;99240.53;5137027;27;20052;-87
2023/03/15 12:44:19;;;;;;;107.47;70.60;;;;;;;2.27;100.00;99244.22;5119296;27;20047;-86
2023/03/15 12:46:59;;;;;;;117.55;74.45;;;;;;;2.67;100.00;99225.69;5132314;27;20602;-87
2023/03/15 12:49:37;;;;;;;107.85;70.82;;;;;;;2.63;100.00;99211.66;5135675;27;20273;-87
2023/03/15 12:52:06;;;;;;;116.32;74.28;;;;;;;3.03;100.00;99227.00;5131694;27;20143;-87
2023/03/15 12:54:41;;;;;;;112.40;71.63;;;;;;;3.25;100.00;99225.94;5127420;27;20049;-88
2023/03/15 12:57:10;;;;;;;116.20;72.30;;;;;;;3.32;100.00;99200.19;5116663;27;20043;-88
2023/03/15 12:59:51;;;;;;;114.80;72.63;;;;;;;3.43;100.00;99223.41;5117431;27;20043;-88
2023/03/15 13:02:26;;;;;;;128.70;79.57;;;;;;;3.35;100.00;99199.91;5115785;27;20470;-89
2023/03/15 13:05:00;;;;;;;106.22;69.90;;;;;;;3.72;100.00;99201.13;5128489;27;20055;-88
2023/03/15 13:07:38;;;;;;;117.30;74.60;;;;;;;3.48;100.00;99223.03;5127902;27;20054;-88
2023/03/15 13:10:53;;;;;;;116.47;72.57;;;;;;;3.93;100.00;99210.91;5121297;27;20142;-88
2023/03/15 13:13:43;;;;;;;138.18;80.90;;;;;;;4.33;100.00;99228.72;5126224;27;20582;-87
2023/03/15 13:16:25;;;;;;;128.93;76.50;;;;;;;4.20;100.00;99202.97;5127484;27;20050;-87
2023/03/15 13:19:04;;;;;;;116.13;71.78;;;;;;;4.29;100.00;99240.78;5132731;27;20527;-86
2023/03/15 13:21:35;;;;;;;128.57;76.25;;;;;;;4.43;100.00;99225.03;5131449;27;20057;-87
2023/03/15 13:24:03;;;;;;;143.55;83.03;;;;;;;4.27;100.00;99208.63;5137559;27;20516;-87
2023/03/15 13:26:41;;;;;;;130.90;78.22;;;;;;;4.58;100.00;99238.91;5132133;27;20051;-87
2023/03/15 13:29:13;;;;;;;133.55;79.05;;;;;;;4.51;100.00;99223.47;5129146;27;20130;-88
2023/03/15 13:31:41;;;;;;;120.05;73.68;;;;;;;4.45;100.00;99222.19;5137367;27;20047;-87
2023/03/15 13:47:45;;;;;;;126.03;76.68;;;;;;;5.13;100.00;99200.44;5129779;27;20083;-86
2023/03/15 13:50:14;;;;;;;123.80;74.40;;;;;;;5.10;100.00;99187.28;5125822;27;20054;-86
2023/03/15 13:52:42;;;;;;;130.73;76.93;;;;;;;5.13;100.00;99213.06;5116973;28;20154;-87
2023/03/15 13:55:13;;;;;;;130.70;78.55;;;;;;;5.21;100.00;99194.31;5127597;27;20141;-87
2023/03/15 13:57:40;;;;;;;125.95;75.55;;;;;;;5.16;100.00;99190.34;5135796;27;20301;-86
2023/03/15 14:00:10;;;;;;;128.93;77.75;;;;;;;5.28;100.00;99202.63;5138317;27;20050;-87
2023/03/15 14:02:46;;;;;;;130.30;78.28;;;;;;;5.13;100.00;99202.28;5134713;27;20046;-87
2023/03/15 14:05:18;;;;;;;130.93;77.60;;;;;;;4.84;100.00;99194.31;5134035;27;20050;-86
2023/03/15 14:49:04;;;;;;;144.35;85.55;;;;;;;5.27;100.00;99198.25;5098165;27;20395;-77
2023/03/15 14:51:32;;;;;;;126.22;76.07;;;;;;;5.16;100.00;99199.28;5079936;28;20056;-77
2023/03/15 14:53:59;;;;;;;123.93;75.50;;;;;;;4.94;100.00;99187.06;5073146;28;20048;-77
2023/03/15 14:56:26;;;;;;;127.88;76.93;;;;;;;5.06;100.00;99207.41;5078531;28;20109;-77
2023/03/15 14:58:53;;;;;;;133.85;79.38;;;;;;;4.85;100.00;99206.78;5067349;28;20055;-77
2023/03/15 15:01:23;;;;;;;123.30;75.15;;;;;;;4.72;100.00;99201.72;5082519;28;20048;-77
2023/03/15 15:03:54;;;;;;;123.05;74.28;;;;;;;4.59;100.00;99191.25;5066834;28;20071;-77
2023/03/15 15:06:22;;;;;;;120.07;74.25;;;;;;;4.47;100.00;99205.91;5081217;28;20060;-77
2023/03/15 15:08:51;;;;;;;120.72;74.10;;;;;;;4.31;100.00;99195.75;5075981;28;20055;-77
2023/03/15 15:11:18;;;;;;;127.25;78.25;;;;;;;4.31;100.00;99215.41;5081110;28;20231;-77
2023/03/15 15:13:44;;;;;;;117.88;73.30;;;;;;;4.10;100.00;99198.59;5083420;28;20101;-77
2023/03/15 15:16:11;;;;;;;125.22;76.35;;;;;;;4.14;100.00;99219.69;5082437;28;20044;-77
2023/03/15 15:18:38;;;;;;;131.68;78.47;;;;;;;4.06;100.00;99206.94;5078497;28;21020;-77
2023/03/15 15:21:12;;;;;;;132.65;79.68;;;;;;;4.06;100.00;99208.78;5074799;28;20408;-77
2023/03/15 15:23:42;;;;;;;119.60;73.90;;;;;;;4.02;100.00;99229.75;5077187;28;20350;-77
2023/03/15 15:26:17;;;;;;;123.90;76.45;;;;;;;3.94;100.00;99220.66;5078540;28;20135;-77
2023/03/15 15:28:44;;;;;;;124.35;75.88;;;;;;;4.04;100.00;99219.69;5069754;28;20523;-77
2023/03/15 15:31:15;;;;;;;118.63;72.93;;;;;;;4.02;100.00;99223.50;5085667;28;20052;-77
2023/03/15 15:33:42;;;;;;;123.55;76.65;;;;;;;4.14;100.00;99225.06;5086117;28;20463;-77
2023/03/15 15:36:13;;;;;;;123.47;76.35;;;;;;;4.27;100.00;99235.53;5082762;28;20055;-77
2023/03/15 15:38:42;;;;;;;126.63;81.20;;;;;;;4.19;100.00;99227.34;5085125;28;20123;-77
2023/03/15 15:41:14;;;;;;;124.68;77.15;;;;;;;4.13;100.00;99234.13;5084694;28;20054;-77
2023/03/15 15:43:40;;;;;;;121.28;77.38;;;;;;;4.13;100.00;99233.28;5071234;28;20052;-77
2023/03/15 15:46:10;;;;;;;125.53;76.65;;;;;;;4.19;100.00;99238.09;5062988;28;20110;-77
2023/03/15 15:48:36;;;;;;;131.27;80.95;;;;;;;4.15;100.00;99244.75;5055250;28;20052;-77
2023/03/15 15:51:19;;;;;;;126.00;81.75;;;;;;;4.11;100.00;99241.50;5045313;28;20562;-77
2023/03/15 15:53:47;;;;;;;119.63;74.88;;;;;;;4.23;100.00;99242.19;5042638;28;20053;-77
2023/03/15 15:56:14;;;;;;;124.93;73.60;;;;;;;4.23;100.00;99251.13;5051113;28;20055;-77
2023/03/15 15:58:41;;;;;;;122.72;76.90;;;;;;;4.28;100.00;99256.06;5049109;28;20124;-77
2023/03/15 16:01:11;;;;;;;123.88;76.32;;;;;;;4.23;100.00;99247.56;5050055;28;20037;-77
2023/03/15 16:03:38;;;;;;;118.30;73.20;;;;;;;4.31;100.00;99249.56;5047473;28;20049;-77
2023/03/15 16:06:05;;;;;;;120.97;73.82;;;;;;;4.29;100.00;99260.47;5050580;28;20052;-77
2023/03/15 16:08:37;;;;;;;124.15;75.50;;;;;;;4.42;100.00;99268.25;5048446;28;20063;-77
2023/03/15 16:11:05;;;;;;;125.93;76.93;;;;;;;4.16;100.00;99251.84;5049942;28;20104;-77
2023/03/15 16:13:32;;;;;;;122.57;75.97;;;;;;;4.11;100.00;99273.78;5030709;28;20085;-76
2023/03/15 16:15:59;;;;;;;117.43;72.78;;;;;;;4.03;100.00;99276.31;5047719;28;20457;-77
2023/03/15 16:18:25;;;;;;;120.13;72.82;;;;;;;3.92;100.00;99266.53;5040338;28;20047;-77
2023/03/15 16:20:52;;;;;;;126.85;76.65;;;;;;;3.87;100.00;99266.13;5041344;28;20041;-76
2023/03/15 16:23:24;;;;;;;113.72;70.22;;;;;;;3.77;100.00;99266.09;5050451;28;20052;-76
2023/03/15 16:25:54;;;;;;;133.20;80.45;;;;;;;3.75;100.00;99269.91;5048021;28;20063;-76
2023/03/15 16:28:23;;;;;;;119.03;73.25;;;;;;;3.71;100.00;99256.72;5043539;28;20052;-76
2023/03/15 16:30:50;;;;;;;121.00;74.80;;;;;;;3.82;100.00;99281.81;5034005;28;20060;-76
2023/03/15 16:33:19;;;;;;;117.18;72.45;;;;;;;3.68;100.00;99269.63;5030290;28;20046;-76
2023/03/15 16:35:47;;;;;;;124.55;72.90;;;;;;;3.70;100.00;99268.50;5046054;28;20040;-76
2023/03/15 16:38:15;;;;;;;120.75;74.55;;;;;;;3.71;100.00;99264.81;5048252;28;20041;-77
2023/03/15 16:40:45;;;;;;;120.32;73.75;;;;;;;3.81;100.00;99286.34;5046854;28;20041;-76
2023/03/15 16:43:12;;;;;;;119.35;75.30;;;;;;;3.67;100.00;99276.84;5044870;28;20056;-77
2023/03/15 16:45:40;;;;;;;117.30;74.70;;;;;;;3.78;100.00;99292.00;5032501;28;20057;-77
2023/03/15 16:48:07;;;;;;;125.00;76.28;;;;;;;3.62;100.00;99276.38;5039310;28;20068;-76
2023/03/15 16:50:34;;;;;;;121.13;74.63;;;;;;;3.54;100.00;99287.84;5046796;28;20053;-76
2023/03/15 16:53:05;;;;;;;137.95;83.35;;;;;;;3.38;100.00;99279.44;5037234;28;20139;-76
2023/03/15 16:55:32;;;;;;;118.40;74.53;;;;;;;3.41;100.00;99291.75;5038499;28;20081;-76
2023/03/15 16:58:00;;;;;;;127.55;77.47;;;;;;;3.46;100.00;99276.06;5048851;28;20059;-76
2023/03/15 17:00:27;;;;;;;123.60;78.60;;;;;;;3.54;100.00;99303.97;5047714;28;20530;-77
2023/03/15 17:02:58;;;;;;;117.93;74.32;;;;;;;3.50;100.00;99297.16;5049734;28;20064;-78
2023/03/15 17:05:25;;;;;;;124.45;74.88;;;;;;;3.49;100.00;99300.84;5050935;28;20061;-77
2023/03/15 17:07:54;;;;;;;148.48;87.00;;;;;;;3.49;100.00;99303.53;5042560;28;20488;-77
2023/03/15 17:10:23;;;;;;;147.27;86.35;;;;;;;3.47;100.00;99301.97;5031579;28;20420;-77
2023/03/15 17:12:51;;;;;;;122.90;75.57;;;;;;;3.56;100.00;99325.34;5048310;28;20136;-77
2023/03/15 17:15:19;;;;;;;120.63;73.97;;;;;;;3.52;100.00;99308.63;5048858;28;20057;-77
2023/03/15 17:17:46;;;;;;;133.68;80.85;;;;;;;3.54;100.00;99312.03;5047425;28;20044;-77
2023/03/15 17:20:20;;;;;;;126.60;77.68;;;;;;;3.55;100.00;99334.38;5046281;28;20106;-77
2023/03/15 17:22:48;;;;;;;136.20;81.78;;;;;;;3.36;100.00;99327.09;5047859;28;20045;-77
2023/03/15 17:25:14;;;;;;;126.60;78.30;;;;;;;3.47;100.00;99337.75;5046758;28;20044;-77
2023/03/15 17:27:42;;;;;;;134.77;79.53;;;;;;;3.50;100.00;99352.75;5047192;28;20132;-78
2023/03/15 17:30:17;;;;;;;123.30;76.10;;;;;;;3.45;100.00;99355.00;5047258;28;20063;-78
2023/03/15 17:32:43;;;;;;;128.85;77.30;;;;;;;3.12;100.00;99338.16;5048276;28;20092;-77
2023/03/15 17:35:10;;;;;;;133.77;79.70;;;;;;;3.29;100.00;99367.09;5047131;28;20051;-77
2023/03/15 17:37:43;;;;;;;136.35;80.47;;;;;;;3.30;100.00;99363.41;5045602;28;20044;-77
2023/03/15 17:40:18;;;;;;;125.72;76.22;;;;;;;3.31;100.00;99367.81;5046442;28;20087;-77
2023/03/15 17:42:45;;;;;;;129.38;76.97;;;;;;;3.23;100.00;99367.63;5047957;28;20049;-77
2023/03/15 17:45:15;;;;;;;130.93;78.18;;;;;;;3.33;100.00;99370.38;5046668;28;20045;-77
2023/03/15 17:47:42;;;;;;;135.13;80.18;;;;;;;3.36;100.00;99357.50;5047025;28;20056;-77
2023/03/15 17:50:10;;;;;;;121.22;75.30;;;;;;;3.30;100.00;99367.94;5045379;28;20048;-77
2023/03/15 17:52:37;;;;;;;138.20;82.50;;;;;;;3.23;100.00;99375.69;5047778;28;20053;-77
2023/03/15 17:55:06;;;;;;;132.75;80.55;;;;;;;3.26;100.00;99377.25;5044718;28;20148;-77
2023/03/15 17:57:32;;;;;;;132.73;78.83;;;;;;;3.26;100.00;99369.19;5046842;28;20059;-77
2023/03/15 17:59:59;;;;;;;124.55;76.90;;;;;;;3.18;100.00;99369.88;5047462;28;20065;-77
2023/03/15 18:02:26;;;;;;;120.00;74.00;;;;;;;3.15;100.00;99373.66;5047756;28;20263;-77
2023/03/15 18:04:53;;;;;;;125.05;76.65;;;;;;;3.03;100.00;99380.09;5042631;28;20055;-77
2023/03/15 18:07:20;;;;;;;119.82;74.00;;;;;;;3.04;100.00;99395.22;5044596;28;20044;-77
2023/03/15 18:09:47;;;;;;;125.40;75.78;;;;;;;2.91;100.00;99373.09;5044351;28;20579;-77
2023/03/15 18:12:16;;;;;;;126.90;77.97;;;;;;;2.91;100.00;99381.13;5045992;28;20132;-77
